Time;durP1;ratioP1;P1;durP2;ratioP2;P2;SDS_P1;SDS_P2;PMS_P1;PMS_P2;Temp;Humidity;BMP_temperature;BMP_pressure;BME280_temperature;BME280_humidity;BME280_pressure;Samples;Min_cycle;Max_cycle;Signal;HPM_P1;HPM_P2
2021/09/15 00:01:52;;;;;;;11.32;8.63;;;;;;;16.86;100.00;95048.34;5012623;28;20179;-57
2021/09/15 00:04:26;;;;;;;10.65;8.77;;;;;;;16.86;100.00;95049.16;4997411;28;20026;-56
2021/09/15 00:06:52;;;;;;;11.27;8.90;;;;;;;16.87;100.00;95047.25;5013867;28;20026;-55
2021/09/15 00:09:17;;;;;;;12.48;9.63;;;;;;;16.89;100.00;95047.75;5012762;28;20030;-57
2021/09/15 00:11:49;;;;;;;10.80;8.75;;;;;;;16.89;100.00;95048.53;5012302;28;20030;-56
2021/09/15 00:14:14;;;;;;;12.18;9.10;;;;;;;16.88;100.00;95049.66;5013831;28;20500;-56
2021/09/15 00:16:43;;;;;;;16.33;9.82;;;;;;;16.86;100.00;95053.78;4996299;28;20026;-56
2021/09/15 00:19:10;;;;;;;11.77;9.50;;;;;;;16.82;100.00;95045.44;5012496;28;20033;-55
2021/09/15 00:21:42;;;;;;;11.98;8.73;;;;;;;16.79;100.00;95046.06;5013340;28;20065;-56
2021/09/15 00:24:07;;;;;;;12.27;8.80;;;;;;;16.77;100.00;95043.66;5013585;28;20436;-58
2021/09/15 00:26:33;;;;;;;12.15;9.38;;;;;;;16.79;100.00;95046.06;5013482;28;20029;-57
2021/09/15 00:28:58;;;;;;;14.93;9.85;;;;;;;16.78;100.00;95041.75;5013657;28;20084;-54
2021/09/15 00:31:27;;;;;;;13.90;9.73;;;;;;;16.75;100.00;95043.19;5013113;28;20028;-56
2021/09/15 00:33:52;;;;;;;11.73;9.45;;;;;;;16.75;100.00;95040.47;5012158;28;20034;-58
2021/09/15 00:36:17;;;;;;;15.27;10.70;;;;;;;16.72;100.00;95037.59;5013426;28;20072;-58
2021/09/15 00:38:55;;;;;;;13.10;10.38;;;;;;;16.68;100.00;95037.38;5013288;28;20030;-55
2021/09/15 00:41:23;;;;;;;13.23;10.02;;;;;;;16.64;100.00;95030.16;5012070;28;20025;-56
2021/09/15 00:44:05;;;;;;;13.60;10.43;;;;;;;16.60;100.00;95024.53;5013433;28;20022;-55
2021/09/15 00:46:30;;;;;;;13.50;10.15;;;;;;;16.56;100.00;95025.47;5013268;28;20061;-58
2021/09/15 00:48:56;;;;;;;13.40;10.70;;;;;;;16.51;100.00;95026.38;5013276;28;20026;-55
2021/09/15 00:51:28;;;;;;;14.20;9.55;;;;;;;16.51;100.00;95016.38;5012991;28;20026;-57
2021/09/15 00:54:16;;;;;;;13.57;9.97;;;;;;;16.44;100.00;95018.66;5013158;28;20057;-56
2021/09/15 00:56:47;;;;;;;12.43;10.10;;;;;;;16.40;100.00;95004.16;5011937;28;20032;-56
2021/09/15 00:59:13;;;;;;;12.40;9.90;;;;;;;16.35;100.00;94990.75;5013152;28;20029;-58
2021/09/15 01:01:45;;;;;;;15.10;10.63;;;;;;;16.33;100.00;94986.75;5011672;28;20484;-56
2021/09/15 01:04:10;;;;;;;13.90;10.07;;;;;;;16.29;100.00;94986.56;5013271;28;20038;-53
2021/09/15 01:06:35;;;;;;;14.07;10.48;;;;;;;16.26;100.00;94976.34;5012846;28;20032;-58
2021/09/15 01:09:07;;;;;;;10.75;9.65;;;;;;;16.24;100.00;94970.44;5013054;28;20428;-58
2021/09/15 01:11:42;;;;;;;11.90;10.03;;;;;;;16.26;100.00;94960.13;5011590;28;20057;-56
2021/09/15 01:14:09;;;;;;;12.48;10.13;;;;;;;16.23;100.00;94964.25;5011673;28;20117;-58
2021/09/15 01:17:07;;;;;;;11.70;10.15;;;;;;;16.21;100.00;94954.84;5012716;28;20511;-58
2021/09/15 01:19:38;;;;;;;11.55;10.15;;;;;;;16.16;100.00;94953.03;4994898;28;20048;-57
2021/09/15 01:22:07;;;;;;;12.57;9.52;;;;;;;16.15;100.00;94950.63;5032792;23;20539;-60
2021/09/15 01:24:32;;;;;;;11.57;9.48;;;;;;;16.15;100.00;94937.13;5011451;28;20052;-56
2021/09/15 01:26:59;;;;;;;14.48;9.60;;;;;;;16.13;100.00;94931.22;5024170;28;20030;-60
2021/09/15 01:29:27;;;;;;;11.57;9.52;;;;;;;-144.43;100.00;64487.81;5012556;28;20042;-59
2021/09/15 01:32:13;;;;;;;13.30;9.73;;;;;;;16.22;100.00;94908.59;5000867;28;20025;-60
2021/09/15 01:34:52;;;;;;;13.15;9.20;;;;;;;16.17;100.00;94908.72;4993043;28;20054;-60
2021/09/15 01:37:20;;;;;;;11.25;8.93;;;;;;;16.13;100.00;94896.91;4993096;28;20106;-60
2021/09/15 01:39:46;;;;;;;12.48;9.23;;;;;;;16.12;100.00;94902.63;4975489;28;20026;-60
2021/09/15 01:42:14;;;;;;;13.25;9.82;;;;;;;16.12;100.00;94895.31;4992901;28;20510;-60
2021/09/15 01:44:45;;;;;;;11.82;9.55;;;;;;;16.13;100.00;94878.00;4994842;28;20429;-60
2021/09/15 01:47:13;;;;;;;16.38;9.70;;;;;;;16.18;100.00;94867.09;4996934;28;20499;-60
2021/09/15 01:49:44;;;;;;;16.73;8.90;;;;;;;16.19;100.00;94859.78;4996730;28;20061;-60
2021/09/15 01:52:11;;;;;;;8.98;8.05;;;;;;;16.19;100.00;94854.38;4996856;28;20489;-60
2021/09/15 01:54:37;;;;;;;11.55;8.65;;;;;;;16.17;100.00;94865.50;4995901;28;20034;-61
2021/09/15 01:57:08;;;;;;;11.90;8.35;;;;;;;16.19;100.00;94862.47;4995641;28;20049;-60
2021/09/15 01:59:34;;;;;;;12.45;8.27;;;;;;;16.17;100.00;94854.69;4996867;28;20023;-61
2021/09/15 02:01:59;;;;;;;13.80;8.15;;;;;;;16.17;100.00;94851.97;4995411;28;20080;-59
2021/09/15 02:04:27;;;;;;;10.70;8.85;;;;;;;16.16;100.00;94844.16;4995799;28;20030;-60
2021/09/15 02:07:04;;;;;;;9.50;8.02;;;;;;;16.15;100.00;94837.94;5011886;28;22414;-59
2021/09/15 02:09:30;;;;;;;10.00;8.23;;;;;;;16.17;100.00;94837.63;4995746;28;20038;-58
2021/09/15 02:11:55;;;;;;;9.98;8.27;;;;;;;16.15;100.00;94839.84;4996659;28;20029;-57
2021/09/15 02:14:29;;;;;;;12.38;8.48;;;;;;;16.15;100.00;94840.66;4995661;28;20057;-59
2021/09/15 02:16:57;;;;;;;8.95;7.93;;;;;;;16.13;100.00;94840.16;4996704;28;20109;-60
2021/09/15 02:19:26;;;;;;;10.52;8.05;;;;;;;16.11;100.00;94841.59;4996711;28;20025;-60
2021/09/15 02:21:54;;;;;;;12.65;7.80;;;;;;;16.08;100.00;94840.28;4995356;28;20050;-61
2021/09/15 02:24:25;;;;;;;10.05;8.07;;;;;;;16.04;100.00;94843.91;4995890;28;20396;-61
2021/09/15 02:26:56;;;;;;;10.65;7.88;;;;;;;16.00;100.00;94845.63;5010053;28;20031;-61
2021/09/15 02:29:24;;;;;;;10.95;8.43;;;;;;;15.96;100.00;94860.84;4995135;28;20034;-60
2021/09/15 02:31:50;;;;;;;9.45;7.68;;;;;;;15.93;100.00;94863.03;4996456;28;20030;-60
2021/09/15 02:34:15;;;;;;;10.70;8.02;;;;;;;15.91;100.00;94859.03;5015126;28;20459;-59
2021/09/15 02:36:44;;;;;;;9.30;7.93;;;;;;;15.93;100.00;94864.94;4996216;28;20038;-58
2021/09/15 02:39:09;;;;;;;13.25;8.40;;;;;;;15.92;100.00;94864.13;4996058;28;20482;-60
2021/09/15 02:41:35;;;;;;;12.43;8.10;;;;;;;15.93;100.00;94860.31;4996479;28;20036;-61
2021/09/15 02:44:00;;;;;;;10.70;7.88;;;;;;;15.95;100.00;94862.72;4995591;28;20050;-59
2021/09/15 02:46:25;;;;;;;9.35;8.05;;;;;;;15.95;100.00;94849.22;4996212;28;20072;-61
2021/09/15 02:48:59;;;;;;;9.38;8.07;;;;;;;15.99;100.00;94847.53;4996355;28;20042;-60
2021/09/15 02:51:25;;;;;;;11.32;8.50;;;;;;;15.98;100.00;94848.63;4996218;28;20421;-60
2021/09/15 02:53:53;;;;;;;12.35;8.60;;;;;;;15.97;100.00;94838.94;4996159;28;20030;-60
2021/09/15 02:56:22;;;;;;;11.05;8.63;;;;;;;15.95;100.00;94841.09;4995193;28;20058;-60
2021/09/15 02:58:47;;;;;;;8.93;7.57;;;;;;;15.95;100.00;94838.41;4995079;28;20105;-60
2021/09/15 03:01:25;;;;;;;10.43;7.95;;;;;;;15.93;100.00;94837.91;4995883;28;20442;-60
2021/09/15 03:03:56;;;;;;;11.10;7.57;;;;;;;15.90;100.00;94836.63;4995933;28;20038;-61
2021/09/15 03:06:22;;;;;;;8.55;7.63;;;;;;;15.89;100.00;94837.75;4996002;28;20030;-58
2021/09/15 03:08:50;;;;;;;12.43;8.38;;;;;;;15.87;100.00;94831.84;4995499;28;20018;-60
2021/09/15 03:11:15;;;;;;;8.38;7.43;;;;;;;15.88;100.00;94832.66;5010938;28;20037;-61
2021/09/15 03:13:41;;;;;;;12.20;8.55;;;;;;;15.89;100.00;94834.25;4995671;28;20543;-60
2021/09/15 03:16:16;;;;;;;9.50;8.07;;;;;;;15.88;100.00;94835.34;4995592;28;20049;-60
2021/09/15 03:18:44;;;;;;;12.02;7.72;;;;;;;15.87;100.00;94826.44;5010741;28;20084;-60
2021/09/15 03:21:09;;;;;;;13.25;8.52;;;;;;;15.87;100.00;94834.53;4995215;28;20057;-56
2021/09/15 03:23:35;;;;;;;9.90;8.15;;;;;;;15.86;100.00;94824.84;4995428;28;20497;-60
2021/09/15 03:26:00;;;;;;;15.15;8.68;;;;;;;15.86;100.00;94824.06;5007731;28;20030;-61
2021/09/15 03:28:25;;;;;;;10.35;8.25;;;;;;;15.84;100.00;94818.94;4995394;28;20503;-59
2021/09/15 03:30:59;;;;;;;10.35;7.65;;;;;;;15.82;100.00;94829.25;4994503;28;20109;-58
2021/09/15 03:33:25;;;;;;;10.63;8.32;;;;;;;15.81;100.00;94829.56;4999236;28;20366;-58
2021/09/15 03:35:50;;;;;;;9.75;7.63;;;;;;;15.79;100.00;94827.16;4995711;28;20169;-58
2021/09/15 03:38:19;;;;;;;10.40;8.68;;;;;;;15.81;100.00;94819.53;4994552;28;20027;-61
2021/09/15 03:40:44;;;;;;;9.05;7.38;;;;;;;15.83;100.00;94808.44;4994762;28;20065;-58
2021/09/15 03:43:19;;;;;;;11.27;8.48;;;;;;;15.82;100.00;94801.44;4995326;28;20073;-55
2021/09/15 03:45:48;;;;;;;8.70;7.75;;;;;;;15.83;100.00;94803.81;4995257;28;20085;-60
2021/09/15 03:48:13;;;;;;;10.43;8.45;;;;;;;15.84;100.00;94816.22;4993910;28;20556;-58
2021/09/15 03:50:41;;;;;;;11.75;8.90;;;;;;;15.84;100.00;94818.13;4995066;28;20121;-60
2021/09/15 03:53:13;;;;;;;13.20;8.90;;;;;;;15.82;100.00;94826.53;4995187;28;20018;-59
2021/09/15 03:55:38;;;;;;;10.38;7.85;;;;;;;15.86;100.00;94824.06;4995234;28;20046;-60
2021/09/15 03:58:04;;;;;;;9.02;7.63;;;;;;;15.88;100.00;94813.75;4993707;28;20023;-58
2021/09/15 04:00:38;;;;;;;11.02;8.07;;;;;;;15.91;100.00;94807.72;4994880;28;20141;-60
2021/09/15 04:03:07;;;;;;;10.95;8.18;;;;;;;15.92;100.00;94795.81;4994939;28;20366;-59
2021/09/15 04:05:32;;;;;;;12.40;8.95;;;;;;;15.92;100.00;94799.31;4993670;28;20118;-58
2021/09/15 04:07:58;;;;;;;10.90;8.80;;;;;;;15.92;100.00;94807.41;4992425;28;20117;-59
2021/09/15 04:10:26;;;;;;;12.30;8.52;;;;;;;15.91;100.00;94799.63;4994641;28;20045;-60
2021/09/15 04:12:51;;;;;;;10.15;9.07;;;;;;;15.92;100.00;94807.41;4993414;28;20481;-59
2021/09/15 04:15:17;;;;;;;10.13;8.93;;;;;;;15.95;100.00;94811.41;4994563;28;20030;-57
2021/09/15 04:17:42;;;;;;;15.77;9.48;;;;;;;15.96;100.00;94823.81;4993497;28;20034;-57
2021/09/15 04:20:08;;;;;;;12.27;9.40;;;;;;;15.97;100.00;94830.03;4994530;28;20366;-54
2021/09/15 04:22:36;;;;;;;11.90;9.70;;;;;;;15.95;100.00;94830.31;4994363;28;20046;-57
2021/09/15 04:33:02;;;;;;;12.90;9.07;;;;;;;16.02;100.00;94770.47;4998305;28;20037;-57
2021/09/15 04:35:28;;;;;;;11.98;9.65;;;;;;;16.02;100.00;94762.38;4995931;28;20018;-57
2021/09/15 04:37:54;;;;;;;15.82;10.60;;;;;;;16.03;100.00;94758.56;4996063;28;20394;-59
2021/09/15 04:40:20;;;;;;;11.73;9.63;;;;;;;16.05;100.00;94757.13;4996331;28;20038;-59
2021/09/15 04:42:48;;;;;;;13.95;10.27;;;;;;;16.06;100.00;94758.72;4996396;28;20027;-61
2021/09/15 04:45:13;;;;;;;13.90;10.43;;;;;;;16.10;100.00;94756.22;4996300;28;20027;-61
2021/09/15 04:47:39;;;;;;;14.98;11.45;;;;;;;16.14;100.00;94752.59;4995173;28;20085;-61
2021/09/15 04:50:05;;;;;;;14.38;11.80;;;;;;;16.16;100.00;94752.28;4996502;28;20027;-61
2021/09/15 04:52:30;;;;;;;13.30;10.85;;;;;;;16.19;100.00;94765.19;4995805;28;20105;-60
2021/09/15 04:54:56;;;;;;;15.38;12.52;;;;;;;16.20;100.00;94764.09;4996491;28;20452;-59
2021/09/15 04:57:24;;;;;;;14.27;11.88;;;;;;;16.23;100.00;94766.97;4996042;28;20022;-60
2021/09/15 04:59:50;;;;;;;14.10;11.27;;;;;;;16.24;100.00;94770.47;4995946;28;20080;-58
2021/09/15 05:02:18;;;;;;;15.43;11.90;;;;;;;16.23;100.00;94766.97;4995321;28;20501;-61
2021/09/15 05:04:56;;;;;;;15.30;11.32;;;;;;;16.19;100.00;94766.00;4995509;28;20030;-57
2021/09/15 05:07:21;;;;;;;12.70;10.82;;;;;;;16.15;100.00;94758.78;4995468;28;20021;-56
2021/09/15 05:09:46;;;;;;;13.65;11.10;;;;;;;16.14;100.00;94749.91;4994406;28;20397;-56
2021/09/15 05:12:12;;;;;;;14.48;11.80;;;;;;;16.16;100.00;94754.97;4995912;28;20096;-58
2021/09/15 05:14:40;;;;;;;17.42;11.38;;;;;;;16.16;100.00;94763.88;4995624;28;20026;-57
2021/09/15 05:17:05;;;;;;;15.45;12.00;;;;;;;16.14;100.00;94766.09;4995270;28;20045;-60
2021/09/15 05:19:31;;;;;;;16.75;12.50;;;;;;;16.12;100.00;94760.22;5010824;28;20025;-59
2021/09/15 05:21:56;;;;;;;16.15;10.80;;;;;;;16.12;100.00;94762.13;5007668;28;20434;-59
2021/09/15 05:24:22;;;;;;;14.02;11.65;;;;;;;16.11;100.00;94774.03;4994752;28;20137;-59
2021/09/15 05:26:47;;;;;;;13.27;10.68;;;;;;;16.14;100.00;94785.00;5011906;28;20362;-59
2021/09/15 05:29:14;;;;;;;15.00;10.93;;;;;;;16.15;100.00;94783.91;5014029;28;20045;-59
2021/09/15 05:31:39;;;;;;;12.68;9.90;;;;;;;16.17;100.00;94794.41;5012744;28;20084;-57
2021/09/15 05:34:07;;;;;;;16.92;10.23;;;;;;;16.17;100.00;94810.63;5002191;28;20026;-57
2021/09/15 05:36:33;;;;;;;13.43;10.07;;;;;;;16.17;100.00;94835.75;4994128;28;20018;-60
2021/09/15 05:38:58;;;;;;;11.73;9.95;;;;;;;16.20;100.00;94808.13;4994311;28;20493;-59
2021/09/15 05:41:24;;;;;;;13.15;9.52;;;;;;;16.24;100.00;94792.09;4976896;28;20054;-60
2021/09/15 05:43:49;;;;;;;14.55;10.45;;;;;;;16.26;100.00;94795.28;4994214;28;20432;-58
2021/09/15 05:46:14;;;;;;;14.68;10.05;;;;;;;16.26;100.00;94799.88;4992606;28;20549;-60
2021/09/15 05:48:40;;;;;;;11.48;9.40;;;;;;;16.27;100.00;94801.47;4994035;28;20481;-60
2021/09/15 05:51:06;;;;;;;14.20;9.68;;;;;;;16.27;100.00;94793.38;5010588;28;20032;-60
2021/09/15 05:53:31;;;;;;;14.18;9.50;;;;;;;16.27;100.00;94807.69;5013384;28;20100;-60
2021/09/15 05:56:00;;;;;;;15.35;10.57;;;;;;;16.28;100.00;94811.19;4999005;28;20018;-61
2021/09/15 05:58:25;;;;;;;11.75;9.90;;;;;;;16.29;100.00;94816.31;5008867;28;20504;-58
2021/09/15 06:00:54;;;;;;;12.50;9.63;;;;;;;16.30;100.00;94817.09;5006171;28;20026;-59
2021/09/15 06:03:19;;;;;;;12.88;10.13;;;;;;;16.32;100.00;94831.91;5013096;28;20384;-60
2021/09/15 06:05:44;;;;;;;12.07;9.63;;;;;;;16.33;100.00;94830.00;5027867;28;20026;-58
2021/09/15 06:08:10;;;;;;;12.10;9.65;;;;;;;16.31;100.00;94834.91;4904881;28;20050;-59
2021/09/15 06:10:35;;;;;;;12.80;9.40;;;;;;;16.32;100.00;94825.69;5027252;28;20057;-56
2021/09/15 06:13:00;;;;;;;11.38;9.27;;;;;;;16.31;100.00;94841.09;5013209;28;20397;-58
2021/09/15 06:15:26;;;;;;;12.38;9.93;;;;;;;16.32;100.00;94867.03;5011641;28;20113;-60
2021/09/15 06:17:54;;;;;;;14.00;10.25;;;;;;;16.35;100.00;94874.53;5011845;28;20033;-60
2021/09/15 06:20:20;;;;;;;13.25;10.32;;;;;;;16.39;100.00;94859.31;5011777;28;20262;-59
2021/09/15 06:22:51;;;;;;;12.85;10.50;;;;;;;16.43;100.00;94868.38;5021811;28;20072;-60
2021/09/15 06:25:17;;;;;;;13.00;9.88;;;;;;;16.45;100.00;94892.41;5028425;28;20041;-59
2021/09/15 06:27:42;;;;;;;13.48;10.20;;;;;;;16.51;100.00;94893.91;5016245;28;20030;-55
2021/09/15 06:30:08;;;;;;;14.15;11.00;;;;;;;16.55;100.00;94894.06;5029490;28;20056;-59
2021/09/15 06:32:34;;;;;;;15.38;11.88;;;;;;;16.60;100.00;94875.00;5035773;28;20029;-57
2021/09/15 06:34:59;;;;;;;14.95;11.32;;;;;;;16.65;100.00;94848.66;5016356;28;20366;-60
2021/09/15 06:37:25;;;;;;;14.20;11.18;;;;;;;16.69;100.00;94838.84;4998743;28;20022;-59
2021/09/15 06:39:56;;;;;;;13.25;11.77;;;;;;;16.74;100.00;94848.75;5015998;28;20481;-58
2021/09/15 06:42:22;;;;;;;15.70;11.77;;;;;;;16.78;100.00;94858.63;5016071;28;20025;-58
2021/09/15 06:44:48;;;;;;;18.02;12.52;;;;;;;16.84;100.00;94850.41;5016186;28;20036;-60
2021/09/15 06:47:14;;;;;;;16.88;11.60;;;;;;;16.90;100.00;94854.56;5015883;28;20113;-61
2021/09/15 06:49:39;;;;;;;16.45;12.73;;;;;;;16.98;100.00;94862.72;5015145;28;20512;-61
2021/09/15 06:52:04;;;;;;;17.27;11.90;;;;;;;17.04;100.00;94864.19;5016099;28;20026;-59
2021/09/15 06:54:36;;;;;;;14.52;12.40;;;;;;;17.13;100.00;94855.31;5016333;28;20392;-59
2021/09/15 06:57:01;;;;;;;17.58;12.10;;;;;;;17.21;100.00;94852.66;5014516;28;20026;-56
2021/09/15 06:59:27;;;;;;;13.57;11.77;;;;;;;17.30;100.00;94841.84;5016072;28;20026;-58
2021/09/15 07:01:52;;;;;;;14.98;11.77;;;;;;;17.39;100.00;94834.56;5015991;28;20026;-58
2021/09/15 07:04:18;;;;;;;17.23;13.02;;;;;;;17.49;100.00;94830.78;5015559;28;20469;-59
2021/09/15 07:06:46;;;;;;;14.93;11.80;;;;;;;17.55;100.00;94826.81;5015587;28;20034;-57
2021/09/15 07:09:15;;;;;;;15.02;12.20;;;;;;;17.63;100.00;94824.13;5031084;28;20069;-55
2021/09/15 07:11:52;;;;;;;17.20;13.35;;;;;;;17.74;100.00;94823.84;5015508;28;20362;-61
2021/09/15 07:14:18;;;;;;;15.20;11.90;;;;;;;17.84;100.00;94828.97;5015684;28;20028;-60
2021/09/15 07:16:43;;;;;;;12.85;11.52;;;;;;;17.91;100.00;94826.59;5015329;28;20455;-60
2021/09/15 07:19:11;;;;;;;17.27;13.52;;;;;;;18.01;100.00;94828.97;5014733;28;20022;-60
2021/09/15 07:21:37;;;;;;;16.52;11.75;;;;;;;17.96;100.00;94829.94;5030732;22;20048;-54
2021/09/15 07:24:05;;;;;;;15.30;12.68;;;;;;;17.94;100.00;94834.88;5033276;28;20459;-55
2021/09/15 07:26:34;;;;;;;16.88;12.45;;;;;;;18.01;100.00;94837.09;5047726;28;20068;-55
2021/09/15 07:29:02;;;;;;;16.15;12.55;;;;;;;18.05;100.00;94843.50;5034249;28;20041;-56
2021/09/15 07:31:28;;;;;;;13.45;11.50;;;;;;;18.09;100.00;94858.00;5031840;28;20037;-54
2021/09/15 07:33:53;;;;;;;16.25;11.18;;;;;;;18.14;100.00;94860.56;5018055;28;20033;-52
2021/09/15 07:36:24;;;;;;;20.35;12.85;;;;;;;18.22;100.00;94862.47;5013255;28;20101;-58
2021/09/15 07:38:55;;;;;;;15.10;11.55;;;;;;;18.28;100.00;94870.47;5014447;28;20026;-56
2021/09/15 07:41:25;;;;;;;14.60;12.40;;;;;;;18.29;100.00;94866.63;5012842;28;20447;-57
2021/09/15 07:43:53;;;;;;;14.30;11.90;;;;;;;18.32;100.00;94868.69;5014328;28;20029;-52
2021/09/15 07:46:21;;;;;;;14.30;12.00;;;;;;;18.35;100.00;94873.50;5014244;28;20113;-54
2021/09/15 07:48:57;;;;;;;15.55;11.48;;;;;;;18.40;100.00;94879.56;5014187;28;20025;-52
2021/09/15 07:51:22;;;;;;;16.30;12.05;;;;;;;18.45;100.00;94884.84;5014149;28;20026;-56
2021/09/15 07:53:47;;;;;;;14.15;12.50;;;;;;;18.45;100.00;94874.00;5014173;28;20026;-52
2021/09/15 07:56:13;;;;;;;14.98;12.65;;;;;;;18.46;100.00;94889.16;5014458;28;20057;-54
2021/09/15 07:58:39;;;;;;;15.77;11.80;;;;;;;18.46;100.00;94883.72;5014204;28;20372;-57
2021/09/15 08:01:05;;;;;;;18.13;12.20;;;;;;;18.45;100.00;94881.31;5033796;28;20033;-57
2021/09/15 08:03:56;;;;;;;14.38;11.75;;;;;;;18.47;100.00;94879.88;5032568;28;20480;-58
2021/09/15 08:06:22;;;;;;;14.35;11.20;;;;;;;18.46;100.00;94872.06;5033806;28;20033;-57
2021/09/15 08:08:56;;;;;;;14.48;11.52;;;;;;;18.47;100.00;94873.66;5033954;28;20045;-59
2021/09/15 08:11:27;;;;;;;15.98;11.80;;;;;;;18.45;100.00;94871.28;5033515;28;20029;-57
2021/09/15 08:13:56;;;;;;;16.58;12.88;;;;;;;18.49;100.00;94883.06;5033617;28;20111;-52
2021/09/15 08:16:21;;;;;;;17.42;12.25;;;;;;;18.54;100.00;94882.91;5033528;28;20040;-51
2021/09/15 08:18:58;;;;;;;16.55;12.57;;;;;;;18.58;100.00;94885.00;5032269;28;20029;-56
2021/09/15 08:21:24;;;;;;;15.98;12.75;;;;;;;18.61;100.00;94885.13;5029548;28;20103;-58
2021/09/15 08:23:50;;;;;;;19.13;13.38;;;;;;;18.67;100.00;94883.91;5033503;28;20041;-61
2021/09/15 08:26:19;;;;;;;14.93;12.10;;;;;;;18.71;100.00;94893.00;5031125;28;20021;-57
2021/09/15 08:28:45;;;;;;;14.88;12.82;;;;;;;18.77;100.00;94886.25;5013488;28;20022;-56
2021/09/15 08:31:11;;;;;;;14.55;12.57;;;;;;;18.81;100.00;94886.44;5013287;28;20030;-57
2021/09/15 08:33:39;;;;;;;13.23;11.70;;;;;;;18.79;100.00;94892.19;5015736;28;20029;-57
2021/09/15 08:36:05;;;;;;;18.55;13.18;;;;;;;18.78;100.00;94890.59;5012030;28;20029;-58
2021/09/15 08:38:33;;;;;;;15.85;13.23;;;;;;;18.79;100.00;94891.38;5012352;28;20021;-54
2021/09/15 08:41:08;;;;;;;19.83;13.73;;;;;;;18.74;100.00;94899.69;5012128;28;20029;-55
2021/09/15 08:43:36;;;;;;;19.05;12.80;;;;;;;18.76;100.00;94905.56;5011885;28;20033;-54
2021/09/15 08:46:04;;;;;;;17.15;12.95;;;;;;;18.80;100.00;94907.34;5013251;28;20029;-53
2021/09/15 08:48:34;;;;;;;15.65;13.82;;;;;;;18.80;100.00;94904.63;5013001;28;20472;-54
2021/09/15 08:51:01;;;;;;;18.73;13.90;;;;;;;18.85;100.00;94908.28;5011775;28;20033;-55
2021/09/15 08:53:27;;;;;;;15.85;12.90;;;;;;;18.81;100.00;94905.44;5012566;28;20030;-56
2021/09/15 08:55:52;;;;;;;18.42;13.77;;;;;;;18.87;100.00;94917.69;5013092;28;20034;-54
2021/09/15 08:58:19;;;;;;;16.95;13.18;;;;;;;18.86;100.00;94918.81;5012048;28;20029;-53
2021/09/15 09:01:06;;;;;;;18.80;13.75;;;;;;;18.91;100.00;94923.31;5012870;28;20043;-53
2021/09/15 09:03:36;;;;;;;16.23;14.18;;;;;;;18.96;100.00;94920.41;5012851;28;20476;-56
2021/09/15 09:06:22;;;;;;;18.92;14.50;;;;;;;18.94;100.00;94928.06;5012992;28;20033;-54
2021/09/15 09:08:58;;;;;;;19.30;13.57;;;;;;;18.90;100.00;94930.66;5012821;28;20025;-54
2021/09/15 09:11:29;;;;;;;18.65;14.85;;;;;;;18.96;100.00;94931.25;5012790;28;20033;-55
2021/09/15 09:14:00;;;;;;;18.38;14.73;;;;;;;18.95;100.00;94937.81;5011640;28;20208;-57
2021/09/15 09:16:44;;;;;;;18.52;15.60;;;;;;;18.95;100.00;94935.91;5012774;28;20037;-58
2021/09/15 09:19:16;;;;;;;17.90;14.07;;;;;;;18.90;100.00;94935.28;5011514;28;20033;-53
2021/09/15 09:21:54;;;;;;;18.20;14.13;;;;;;;18.95;100.00;94937.81;5011018;28;20054;-56
2021/09/15 09:24:24;;;;;;;16.92;14.27;;;;;;;19.02;100.00;94940.84;5011909;28;20037;-54
2021/09/15 09:26:56;;;;;;;19.02;14.20;;;;;;;19.08;100.00;94936.84;5011353;28;20068;-57
2021/09/15 09:29:27;;;;;;;19.77;13.25;;;;;;;19.15;100.00;94933.63;5012801;28;20030;-57
2021/09/15 09:32:15;;;;;;;18.10;13.88;;;;;;;19.25;100.00;94934.09;5012704;28;20079;-57
2021/09/15 09:34:44;;;;;;;17.02;12.45;;;;;;;19.35;100.00;94927.53;5011382;28;20029;-59
2021/09/15 09:37:24;;;;;;;16.58;12.88;;;;;;;19.40;100.00;94930.06;5012603;28;20029;-55
2021/09/15 09:39:55;;;;;;;16.27;12.00;;;;;;;19.51;100.00;94909.56;5012939;28;20105;-55
2021/09/15 09:42:24;;;;;;;13.60;11.77;;;;;;;19.61;100.00;94909.22;5011303;28;20171;-57
2021/09/15 09:45:16;;;;;;;16.77;12.23;;;;;;;19.68;100.00;94898.66;5012707;28;20412;-58
2021/09/15 09:47:43;;;;;;;16.90;11.68;;;;;;;19.83;100.00;94885.63;5012412;28;20022;-54
2021/09/15 09:50:12;;;;;;;15.40;11.88;;;;;;;20.00;100.00;94891.00;4978818;28;20041;-57
2021/09/15 09:52:59;;;;;;;14.15;10.90;;;;;;;19.93;100.00;94886.06;5011136;28;20029;-54
2021/09/15 09:55:27;;;;;;;13.90;10.27;;;;;;;19.96;100.00;94862.84;5011012;28;20466;-53
2021/09/15 09:57:54;;;;;;;12.40;9.52;;;;;;;19.96;100.00;94841.09;5012381;28;20026;-52
2021/09/15 10:00:24;;;;;;;16.02;10.40;;;;;;;19.95;100.00;94823.22;5011039;28;20018;-50
2021/09/15 10:02:54;;;;;;;11.63;8.05;;;;;;;19.84;100.00;94803.78;5012319;28;20034;-51
2021/09/15 10:05:22;;;;;;;10.00;7.13;;;;;;;19.86;100.00;94776.25;5012783;28;20065;-59
2021/09/15 10:07:48;;;;;;;13.65;8.18;;;;;;;19.85;100.00;94764.59;5025267;28;20022;-57
2021/09/15 10:10:17;;;;;;;11.85;8.63;;;;;;;19.78;100.00;94760.84;5032286;28;20075;-58
2021/09/15 10:12:45;;;;;;;10.93;8.90;;;;;;;19.76;100.00;94757.66;5030713;28;20069;-56
2021/09/15 10:15:12;;;;;;;12.60;9.15;;;;;;;19.74;100.00;94749.00;5015989;28;20029;-57
2021/09/15 10:17:49;;;;;;;12.85;9.75;;;;;;;19.78;100.00;94747.25;5015402;28;20088;-53
2021/09/15 10:20:16;;;;;;;18.35;10.77;;;;;;;19.87;100.00;94756.13;5012916;28;20366;-59
2021/09/15 10:22:46;;;;;;;12.60;9.85;;;;;;;20.03;100.00;94773.41;5033963;28;20052;-49
2021/09/15 10:25:16;;;;;;;13.00;10.07;;;;;;;20.11;100.00;94763.63;5034388;28;20112;-56
2021/09/15 10:28:09;;;;;;;14.80;9.50;;;;;;;20.44;100.00;94747.34;5035902;28;20048;-54
2021/09/15 10:30:52;;;;;;;10.73;9.25;;;;;;;20.70;100.00;94728.81;5035384;28;20037;-56
2021/09/15 10:33:35;;;;;;;11.70;9.10;;;;;;;21.18;100.00;94713.66;5030011;28;20104;-50
2021/09/15 10:36:19;;;;;;;10.32;7.40;;;;;;;21.42;100.00;94642.03;5015414;28;20060;-51
2021/09/15 10:38:58;;;;;;;9.70;7.15;;;;;;;21.53;100.00;94577.75;5015433;28;20022;-55
2021/09/15 10:41:41;;;;;;;14.30;8.05;;;;;;;21.88;100.00;94537.03;5015389;28;20084;-51
2021/09/15 10:44:08;;;;;;;12.68;7.70;;;;;;;22.28;100.00;94525.22;5014992;28;20050;-52
2021/09/15 10:46:35;;;;;;;8.23;6.70;;;;;;;22.60;100.00;94519.75;5020355;28;20502;-56
2021/09/15 10:49:21;;;;;;;10.63;7.80;;;;;;;22.97;100.00;94529.19;5028813;28;20105;-56
2021/09/15 10:52:07;;;;;;;12.55;7.57;;;;;;;23.33;100.00;94536.19;5030407;28;20037;-55
2021/09/15 10:54:55;;;;;;;10.90;7.93;;;;;;;23.37;100.00;94574.56;5002309;28;20044;-50
2021/09/15 10:57:26;;;;;;;10.65;7.18;;;;;;;23.32;100.00;94611.13;5034819;28;20530;-52
2021/09/15 10:59:54;;;;;;;8.38;6.38;;;;;;;23.28;100.00;94623.94;5025323;28;20033;-55
2021/09/15 11:02:29;;;;;;;8.90;5.78;;;;;;;23.25;100.00;94656.66;5014799;28;20029;-56
2021/09/15 11:04:57;;;;;;;10.35;5.97;;;;;;;23.23;100.00;94642.53;5020147;28;20061;-52
2021/09/15 11:07:48;;;;;;;7.75;6.13;;;;;;;23.21;100.00;94670.22;5018252;28;20018;-50
2021/09/15 11:10:35;;;;;;;8.98;6.40;;;;;;;23.31;100.00;94679.81;5007637;28;20091;-56
2021/09/15 11:13:07;;;;;;;11.07;6.95;;;;;;;23.30;100.00;94691.91;5032252;28;20024;-57
2021/09/15 11:15:35;;;;;;;8.85;7.00;;;;;;;23.23;100.00;94705.38;5025105;28;20116;-56
2021/09/15 11:18:02;;;;;;;14.52;7.93;;;;;;;23.26;100.00;94708.22;5032227;28;20029;-53
2021/09/15 11:20:30;;;;;;;11.32;6.80;;;;;;;23.26;100.00;94721.09;5014203;28;20026;-55
2021/09/15 11:22:55;;;;;;;10.35;6.78;;;;;;;23.23;100.00;94694.44;5016358;28;20044;-52
2021/09/15 11:25:23;;;;;;;9.00;6.78;;;;;;;23.20;100.00;94693.22;5010956;28;20392;-54
2021/09/15 11:28:05;;;;;;;11.77;6.93;;;;;;;23.69;100.00;94685.41;5021786;28;20025;-56
2021/09/15 11:30:31;;;;;;;11.10;7.53;;;;;;;23.98;100.00;94694.97;5027110;28;20056;-56
2021/09/15 11:33:00;;;;;;;9.60;7.63;;;;;;;24.21;100.00;94733.41;5025484;28;20508;-56